createdAt,value
2022-08-23T00:01:01.211Z,99769.27
2022-08-23T00:06:08.039Z,99772.44
2022-08-23T00:11:26.692Z,99775.45
2022-08-23T00:16:32.326Z,99777.59
2022-08-23T00:21:39.158Z,99775.61
2022-08-23T00:26:59.980Z,99776.65
2022-08-23T00:32:06.435Z,99776.00
2022-08-23T00:37:12.681Z,99774.45
2022-08-23T00:42:44.230Z,99776.77
2022-08-23T00:47:51.377Z,99770.59
2022-08-23T00:53:02.900Z,99769.39
2022-08-23T00:58:09.439Z,99760.41
2022-08-23T01:03:16.002Z,99774.72
2022-08-23T01:08:26.949Z,99776.67
2022-08-23T01:13:41.993Z,99769.10
2022-08-23T01:18:48.841Z,99775.26
2022-08-23T01:23:56.483Z,99777.53
2022-08-23T01:29:01.817Z,99771.41
2022-08-23T01:34:08.884Z,99775.95
2022-08-23T01:39:14.450Z,99775.60
2022-08-23T01:44:20.400Z,99782.50
2022-08-23T01:49:27.277Z,99790.86
2022-08-23T01:54:33.163Z,99795.92
2022-08-23T01:59:38.895Z,99801.78
2022-08-23T02:04:44.830Z,99801.45
2022-08-23T02:09:50.291Z,99809.98
2022-08-23T02:14:55.763Z,99807.94
2022-08-23T02:20:05.242Z,99815.70
2022-08-23T02:25:11.775Z,99819.05
2022-08-23T02:30:17.522Z,99818.77
2022-08-23T02:35:24.431Z,99822.60
2022-08-23T02:40:30.211Z,99826.41
2022-08-23T02:45:35.715Z,99828.63
2022-08-23T02:50:41.344Z,99833.02
2022-08-23T02:55:49.158Z,99838.88
2022-08-23T03:00:55.749Z,99844.13
2022-08-23T03:06:24.637Z,99838.98
2022-08-23T03:11:27.468Z,99846.59
2022-08-23T03:16:32.857Z,99841.55
2022-08-23T03:21:40.170Z,99840.48
2022-08-23T03:26:49.805Z,99838.71
2022-08-23T03:31:56.413Z,99836.63
2022-08-23T03:37:04.510Z,99833.19
2022-08-23T03:42:11.424Z,99839.98
2022-08-23T03:47:17.192Z,99842.96
2022-08-23T03:52:23.116Z,99840.11
2022-08-23T03:57:28.938Z,99844.59
2022-08-23T04:02:35.274Z,99848.02
2022-08-23T04:07:41.210Z,99843.35
2022-08-23T04:12:47.253Z,99844.73
2022-08-23T04:17:54.258Z,99844.88
2022-08-23T04:23:00.541Z,99845.14
2022-08-23T04:28:08.423Z,99838.77
2022-08-23T04:33:17.806Z,99838.23
2022-08-23T04:38:25.455Z,99840.19
2022-08-23T04:43:34.215Z,99840.82
2022-08-23T04:48:40.046Z,99850.58
2022-08-23T04:53:45.853Z,99854.60
2022-08-23T04:59:14.382Z,99853.75
2022-08-23T05:04:21.791Z,99857.52
2022-08-23T05:09:27.659Z,99847.31
2022-08-23T05:14:33.132Z,99852.24
2022-08-23T05:19:44.246Z,99854.84
2022-08-23T05:24:53.852Z,99862.88
2022-08-23T05:29:59.366Z,99866.42
2022-08-23T05:35:05.053Z,99872.90
2022-08-23T05:40:12.280Z,99870.45
2022-08-23T05:45:26.817Z,99875.93
2022-08-23T05:50:32.997Z,99880.56
2022-08-23T05:55:40.791Z,99878.63
2022-08-23T06:01:04.274Z,99884.53
2022-08-23T06:06:10.591Z,99875.09
2022-08-23T06:11:17.407Z,99869.31
2022-08-23T06:16:24.312Z,99870.14
2022-08-23T06:21:30.307Z,99873.77
2022-08-23T06:26:38.610Z,99884.64
2022-08-23T06:31:47.561Z,99889.34
2022-08-23T06:37:01.006Z,99887.23
2022-08-23T06:42:41.487Z,99891.48
2022-08-23T06:47:50.704Z,99885.77
2022-08-23T06:52:57.664Z,99892.21
2022-08-23T06:58:24.849Z,99901.80
2022-08-23T07:03:57.767Z,99905.30
2022-08-23T07:09:43.853Z,99906.64
2022-08-23T07:14:49.883Z,99912.15
2022-08-23T07:19:56.920Z,99907.86
2022-08-23T07:25:02.518Z,99917.02
2022-08-23T07:30:09.252Z,99921.55
2022-08-23T07:35:17.360Z,99920.96
2022-08-23T07:40:24.244Z,99918.88
2022-08-23T07:45:37.248Z,99918.73
2022-08-23T07:50:50.006Z,99911.65
2022-08-23T07:56:08.195Z,99908.63
2022-08-23T08:01:41.352Z,99905.19
2022-08-23T08:06:59.816Z,99912.16
2022-08-23T08:12:15.523Z,99909.25
2022-08-23T08:17:25.435Z,99905.05
2022-08-23T08:22:58.302Z,99910.10
2022-08-23T08:28:15.260Z,99909.44
2022-08-23T08:33:22.251Z,99910.97
2022-08-23T08:38:30.894Z,99904.73
2022-08-23T08:43:43.143Z,99903.27
2022-08-23T08:48:51.521Z,99904.91
2022-08-23T08:53:57.926Z,99905.38
2022-08-23T08:59:16.353Z,99908.77
2022-08-23T09:04:22.859Z,99912.36
2022-08-23T09:09:40.913Z,99906.81
2022-08-23T09:14:52.141Z,99902.17
2022-08-23T09:20:00.699Z,99898.39
2022-08-23T09:25:10.359Z,99900.91
2022-08-23T09:30:21.758Z,99895.89
2022-08-23T09:35:28.033Z,99902.67
2022-08-23T09:40:42.853Z,99902.44
2022-08-23T09:45:57.863Z,99898.61
2022-08-23T09:51:11.237Z,99898.05
2022-08-23T09:56:26.328Z,99893.55
2022-08-23T10:01:39.109Z,99891.47
2022-08-23T10:06:51.656Z,99890.64
2022-08-23T10:11:59.143Z,99887.09
2022-08-23T10:17:11.519Z,99875.59
2022-08-23T10:22:21.461Z,99882.05
2022-08-23T10:28:25.300Z,99875.78
2022-08-23T10:33:38.584Z,99877.67
2022-08-23T10:38:47.002Z,99878.23
2022-08-23T10:43:55.001Z,99872.20
2022-08-23T10:49:02.033Z,99873.90
2022-08-23T10:54:10.105Z,99875.64
2022-08-23T10:59:20.783Z,99871.80
2022-08-23T11:04:31.601Z,99866.75
2022-08-23T11:10:06.243Z,99868.55
2022-08-23T11:15:21.699Z,99874.21
2022-08-23T11:20:45.431Z,99871.88
2022-08-23T11:25:50.956Z,99872.38
2022-08-23T11:31:19.442Z,99874.35
2022-08-23T11:36:26.396Z,99867.38
2022-08-23T11:41:33.923Z,99869.55
2022-08-23T11:46:54.179Z,99857.03
2022-08-23T11:52:04.746Z,99856.77
2022-08-23T11:57:20.906Z,99850.52
2022-08-23T12:02:34.526Z,99852.59
2022-08-23T12:07:47.575Z,99848.17
2022-08-23T12:13:17.151Z,99847.02
2022-08-23T12:18:24.135Z,99843.31
2022-08-23T12:23:31.601Z,99843.27
2022-08-23T12:28:40.024Z,99845.94
2022-08-23T12:33:51.846Z,99844.16
2022-08-23T12:39:02.509Z,99833.43
2022-08-23T12:44:09.537Z,99829.46
2022-08-23T12:49:24.963Z,99828.20
2022-08-23T12:54:37.189Z,99832.09
2022-08-23T12:59:45.239Z,99829.89
2022-08-23T13:04:50.856Z,99824.70
2022-08-23T13:09:56.975Z,99819.66
2022-08-23T13:15:04.972Z,99815.55
2022-08-23T13:20:19.017Z,99809.27
2022-08-23T13:25:31.619Z,99800.80
2022-08-23T13:30:39.160Z,99797.35
2022-08-23T13:35:47.208Z,99791.88
2022-08-23T13:41:00.471Z,99792.02
2022-08-23T13:46:14.175Z,99790.22
2022-08-23T13:51:38.576Z,99794.71
2022-08-23T13:56:47.970Z,99800.65
2022-08-23T14:01:54.731Z,99805.69
2022-08-23T14:07:00.131Z,99809.13
2022-08-23T14:12:09.652Z,99814.21
2022-08-23T14:17:16.582Z,99813.88
2022-08-23T14:22:23.094Z,99808.02
2022-08-23T14:27:28.794Z,99793.90
2022-08-23T14:32:34.690Z,99794.16
2022-08-23T14:43:06.272Z,99789.23
2022-08-23T14:48:11.811Z,99799.77
2022-08-23T14:53:18.184Z,99814.34
2022-08-23T14:58:24.873Z,99819.34
2022-08-23T15:03:31.391Z,99819.88
2022-08-23T15:08:37.847Z,99830.33
2022-08-23T15:13:55.549Z,99827.16
2022-08-23T15:19:01.868Z,99826.28
2022-08-23T15:24:07.707Z,99824.17
2022-08-23T15:29:13.429Z,99828.35
2022-08-23T15:34:24.870Z,99833.86
2022-08-23T15:39:31.064Z,99835.34
2022-08-23T15:44:36.580Z,99835.58
2022-08-23T15:49:42.904Z,99833.89
2022-08-23T15:54:48.950Z,99831.08
2022-08-23T15:59:54.614Z,99829.13
2022-08-23T16:05:00.481Z,99841.17
2022-08-23T16:10:07.026Z,99851.23
2022-08-23T16:15:13.237Z,99866.63
2022-08-23T16:20:18.765Z,99861.73
2022-08-23T16:25:24.308Z,99863.96
2022-08-23T16:30:30.773Z,99860.92
2022-08-23T16:35:36.295Z,99869.56
2022-08-23T16:40:41.799Z,99876.86
2022-08-23T16:45:47.620Z,99881.90
2022-08-23T16:50:53.316Z,99881.63
2022-08-23T16:55:58.812Z,99883.59
2022-08-23T17:01:04.306Z,99913.48
2022-08-23T17:06:10.694Z,99938.42
2022-08-23T17:11:17.517Z,99948.89
2022-08-23T17:16:24.592Z,99946.88
2022-08-23T17:21:30.125Z,99943.60
2022-08-23T17:26:35.641Z,99948.17
2022-08-23T17:31:41.155Z,99957.66
2022-08-23T17:36:48.937Z,99967.42
2022-08-23T17:41:58.151Z,99970.08
2022-08-23T17:47:07.173Z,99970.26
2022-08-23T17:52:13.392Z,99973.39
2022-08-23T17:57:18.876Z,99982.65
2022-08-23T18:02:24.326Z,99983.71
2022-08-23T18:07:30.944Z,99992.48
2022-08-23T18:12:36.467Z,99997.20
2022-08-23T18:17:42.255Z,100007.52
2022-08-23T18:22:48.073Z,100022.64
2022-08-23T18:28:11.556Z,100032.92
2022-08-23T18:33:17.311Z,100032.20
2022-08-23T18:38:23.911Z,100029.36
2022-08-23T18:43:37.180Z,100034.23
2022-08-23T18:48:43.233Z,100027.05
2022-08-23T18:53:59.264Z,100039.39
2022-08-23T18:59:04.752Z,100037.99
2022-08-23T19:04:11.070Z,100037.21
2022-08-23T19:09:16.832Z,100034.08
2022-08-23T19:14:22.591Z,100024.45
2022-08-23T19:19:28.244Z,100023.42
2022-08-23T19:24:33.740Z,100029.95
2022-08-23T19:29:39.186Z,100036.48
2022-08-23T19:34:44.871Z,100039.72
2022-08-23T19:39:50.810Z,100043.80
2022-08-23T19:44:56.391Z,100051.20
2022-08-23T19:50:02.267Z,100050.16
2022-08-23T19:55:08.670Z,100057.97
2022-08-23T20:00:19.358Z,100060.82
2022-08-23T20:05:25.424Z,100062.54
2022-08-23T20:10:31.183Z,100061.90
2022-08-23T20:15:36.804Z,100061.33
2022-08-23T20:20:42.941Z,100063.33
2022-08-23T20:25:48.528Z,100059.83
2022-08-23T20:30:54.416Z,100060.77
2022-08-23T20:36:00.043Z,100058.86
2022-08-23T20:41:05.702Z,100061.98
2022-08-23T20:46:11.505Z,100061.36
2022-08-23T20:51:17.402Z,100060.67
2022-08-23T20:56:23.862Z,100060.04
2022-08-23T21:01:30.099Z,100061.08
2022-08-23T21:06:45.363Z,100057.96
2022-08-23T21:11:52.249Z,100058.54
2022-08-23T21:16:57.507Z,100059.16
2022-08-23T21:22:03.047Z,100059.70
2022-08-23T21:27:09.494Z,100061.69
2022-08-23T21:32:15.364Z,100062.04
2022-08-23T21:37:21.223Z,100062.42
2022-08-23T21:42:26.739Z,100065.16
2022-08-23T21:47:32.490Z,100068.45
2022-08-23T21:52:38.324Z,100067.77
2022-08-23T21:57:46.223Z,100071.39
2022-08-23T22:02:51.674Z,100072.84
2022-08-23T22:07:57.718Z,100067.70
2022-08-23T22:13:04.471Z,100065.33
2022-08-23T22:18:10.204Z,100053.54
2022-08-23T22:23:16.018Z,100053.33
2022-08-23T22:28:21.627Z,100057.54
2022-08-23T22:33:27.488Z,100059.54
2022-08-23T22:38:33.005Z,100057.42
2022-08-23T22:43:38.697Z,100057.23
2022-08-23T22:48:44.736Z,100061.36
2022-08-23T22:53:52.530Z,100065.63
2022-08-23T22:58:59.243Z,100066.33
2022-08-23T23:04:05.440Z,100061.37
2022-08-23T23:09:11.803Z,100064.62
2022-08-23T23:14:19.459Z,100065.03
2022-08-23T23:19:42.437Z,100066.51
2022-08-23T23:24:51.374Z,100063.02
2022-08-23T23:29:56.929Z,100063.66
2022-08-23T23:35:02.619Z,100061.26
2022-08-23T23:40:09.263Z,100058.73
2022-08-23T23:45:15.412Z,100059.88
2022-08-23T23:50:21.257Z,100060.90
2022-08-23T23:55:27.416Z,100056.97
